sensor_id;sensor_type;location;lat;lon;timestamp;P1;durP1;ratioP1;P2;durP2;ratioP2
18334;SDS011;9293;49.524;10.964;2022-09-21T00:01:31;60.25;;;8.52;;
18334;SDS011;9293;49.524;10.964;2022-09-21T00:04:00;38.78;;;5.95;;
18334;SDS011;9293;49.524;10.964;2022-09-21T00:06:30;43.33;;;8.90;;
18334;SDS011;9293;49.524;10.964;2022-09-21T00:09:00;49.43;;;8.07;;
18334;SDS011;9293;49.524;10.964;2022-09-21T00:11:34;38.75;;;7.00;;
18334;SDS011;9293;49.524;10.964;2022-09-21T00:14:04;49.35;;;6.68;;
18334;SDS011;9293;49.524;10.964;2022-09-21T00:16:37;80.43;;;9.13;;
18334;SDS011;9293;49.524;10.964;2022-09-21T00:19:06;84.43;;;8.27;;
18334;SDS011;9293;49.524;10.964;2022-09-21T00:21:35;108.72;;;9.15;;
18334;SDS011;9293;49.524;10.964;2022-09-21T00:24:05;148.95;;;8.38;;
18334;SDS011;9293;49.524;10.964;2022-09-21T00:26:33;90.15;;;6.63;;
18334;SDS011;9293;49.524;10.964;2022-09-21T00:29:01;249.95;;;14.68;;
18334;SDS011;9293;49.524;10.964;2022-09-21T00:31:30;182.15;;;11.02;;
18334;SDS011;9293;49.524;10.964;2022-09-21T00:33:59;103.85;;;8.35;;
18334;SDS011;9293;49.524;10.964;2022-09-21T00:36:29;110.97;;;8.73;;
18334;SDS011;9293;49.524;10.964;2022-09-21T00:38:58;99.13;;;8.60;;
18334;SDS011;9293;49.524;10.964;2022-09-21T00:41:30;76.10;;;8.10;;
18334;SDS011;9293;49.524;10.964;2022-09-21T00:44:09;123.50;;;9.40;;
18334;SDS011;9293;49.524;10.964;2022-09-21T00:46:50;101.40;;;9.17;;
18334;SDS011;9293;49.524;10.964;2022-09-21T00:49:21;106.38;;;8.60;;
18334;SDS011;9293;49.524;10.964;2022-09-21T00:51:51;64.28;;;7.95;;
18334;SDS011;9293;49.524;10.964;2022-09-21T00:54:26;101.40;;;8.50;;
18334;SDS011;9293;49.524;10.964;2022-09-21T00:56:58;89.68;;;9.70;;
18334;SDS011;9293;49.524;10.964;2022-09-21T00:59:28;129.30;;;10.57;;
18334;SDS011;9293;49.524;10.964;2022-09-21T01:01:58;62.10;;;7.45;;
18334;SDS011;9293;49.524;10.964;2022-09-21T01:04:27;79.57;;;9.05;;
18334;SDS011;9293;49.524;10.964;2022-09-21T01:06:56;74.68;;;9.35;;
18334;SDS011;9293;49.524;10.964;2022-09-21T01:09:28;107.50;;;12.43;;
18334;SDS011;9293;49.524;10.964;2022-09-21T01:20:27;49.58;;;7.38;;
18334;SDS011;9293;49.524;10.964;2022-09-21T01:30:00;51.35;;;7.30;;
18334;SDS011;9293;49.524;10.964;2022-09-21T01:32:36;49.25;;;7.18;;
18334;SDS011;9293;49.524;10.964;2022-09-21T01:38:01;37.92;;;7.05;;
18334;SDS011;9293;49.524;10.964;2022-09-21T01:40:34;49.20;;;7.30;;
18334;SDS011;9293;49.524;10.964;2022-09-21T01:43:13;34.08;;;7.07;;
18334;SDS011;9293;49.524;10.964;2022-09-21T01:45:53;19.42;;;7.35;;
18334;SDS011;9293;49.524;10.964;2022-09-21T01:48:24;28.30;;;7.90;;
18334;SDS011;9293;49.524;10.964;2022-09-21T01:50:53;16.10;;;6.63;;
18334;SDS011;9293;49.524;10.964;2022-09-21T01:58:49;23.27;;;7.60;;
18334;SDS011;9293;49.524;10.964;2022-09-21T02:01:25;20.38;;;7.15;;
18334;SDS011;9293;49.524;10.964;2022-09-21T02:03:56;40.30;;;8.20;;
18334;SDS011;9293;49.524;10.964;2022-09-21T02:06:31;62.95;;;8.63;;
18334;SDS011;9293;49.524;10.964;2022-09-21T02:08:59;88.65;;;10.05;;
18334;SDS011;9293;49.524;10.964;2022-09-21T02:11:30;174.82;;;12.10;;
18334;SDS011;9293;49.524;10.964;2022-09-21T02:13:59;145.63;;;10.55;;
18334;SDS011;9293;49.524;10.964;2022-09-21T02:16:37;141.07;;;11.38;;
18334;SDS011;9293;49.524;10.964;2022-09-21T02:19:12;66.63;;;9.38;;
18334;SDS011;9293;49.524;10.964;2022-09-21T02:24:49;42.17;;;8.52;;
18334;SDS011;9293;49.524;10.964;2022-09-21T02:30:14;50.80;;;9.13;;
18334;SDS011;9293;49.524;10.964;2022-09-21T02:35:33;71.13;;;9.48;;
18334;SDS011;9293;49.524;10.964;2022-09-21T02:38:52;98.47;;;9.93;;
18334;SDS011;9293;49.524;10.964;2022-09-21T02:41:25;132.57;;;10.95;;
18334;SDS011;9293;49.524;10.964;2022-09-21T02:48:59;152.75;;;10.18;;
18334;SDS011;9293;49.524;10.964;2022-09-21T02:51:44;60.17;;;9.88;;
18334;SDS011;9293;49.524;10.964;2022-09-21T02:54:23;152.52;;;11.30;;
18334;SDS011;9293;49.524;10.964;2022-09-21T02:56:56;107.60;;;10.32;;
18334;SDS011;9293;49.524;10.964;2022-09-21T02:59:26;128.18;;;11.15;;
18334;SDS011;9293;49.524;10.964;2022-09-21T03:01:54;193.65;;;15.90;;
18334;SDS011;9293;49.524;10.964;2022-09-21T03:04:23;174.57;;;10.82;;
18334;SDS011;9293;49.524;10.964;2022-09-21T03:06:51;86.07;;;10.27;;
18334;SDS011;9293;49.524;10.964;2022-09-21T03:09:19;93.03;;;11.50;;
18334;SDS011;9293;49.524;10.964;2022-09-21T03:11:50;117.10;;;12.15;;
18334;SDS011;9293;49.524;10.964;2022-09-21T03:14:18;137.32;;;14.82;;
18334;SDS011;9293;49.524;10.964;2022-09-21T03:16:46;77.90;;;9.73;;
18334;SDS011;9293;49.524;10.964;2022-09-21T03:19:14;140.52;;;14.88;;
18334;SDS011;9293;49.524;10.964;2022-09-21T03:21:42;78.13;;;8.15;;
18334;SDS011;9293;49.524;10.964;2022-09-21T03:24:10;50.20;;;7.55;;
18334;SDS011;9293;49.524;10.964;2022-09-21T03:26:38;67.55;;;7.43;;
18334;SDS011;9293;49.524;10.964;2022-09-21T03:29:06;67.45;;;7.50;;
18334;SDS011;9293;49.524;10.964;2022-09-21T03:31:34;60.40;;;7.63;;
18334;SDS011;9293;49.524;10.964;2022-09-21T03:34:02;40.60;;;7.32;;
18334;SDS011;9293;49.524;10.964;2022-09-21T03:36:30;29.42;;;7.35;;
18334;SDS011;9293;49.524;10.964;2022-09-21T03:38:58;24.65;;;7.28;;
18334;SDS011;9293;49.524;10.964;2022-09-21T03:41:26;87.00;;;9.20;;
18334;SDS011;9293;49.524;10.964;2022-09-21T03:43:54;16.10;;;6.22;;
18334;SDS011;9293;49.524;10.964;2022-09-21T03:46:22;21.23;;;6.10;;
18334;SDS011;9293;49.524;10.964;2022-09-21T03:48:50;36.53;;;6.07;;
18334;SDS011;9293;49.524;10.964;2022-09-21T03:51:18;30.10;;;6.65;;
18334;SDS011;9293;49.524;10.964;2022-09-21T03:53:46;87.40;;;8.63;;
18334;SDS011;9293;49.524;10.964;2022-09-21T03:56:14;26.88;;;5.72;;
18334;SDS011;9293;49.524;10.964;2022-09-21T03:58:42;60.83;;;6.63;;
18334;SDS011;9293;49.524;10.964;2022-09-21T04:01:13;36.60;;;5.90;;
18334;SDS011;9293;49.524;10.964;2022-09-21T04:06:10;91.00;;;7.72;;
18334;SDS011;9293;49.524;10.964;2022-09-21T04:08:39;38.85;;;6.72;;
18334;SDS011;9293;49.524;10.964;2022-09-21T04:11:16;22.52;;;6.43;;
18334;SDS011;9293;49.524;10.964;2022-09-21T04:13:48;29.67;;;6.05;;
18334;SDS011;9293;49.524;10.964;2022-09-21T04:16:18;39.67;;;6.78;;
18334;SDS011;9293;49.524;10.964;2022-09-21T04:18:46;63.58;;;7.70;;
18334;SDS011;9293;49.524;10.964;2022-09-21T04:21:17;63.50;;;7.13;;
18334;SDS011;9293;49.524;10.964;2022-09-21T04:23:45;109.82;;;10.20;;
18334;SDS011;9293;49.524;10.964;2022-09-21T04:26:20;45.92;;;8.10;;
18334;SDS011;9293;49.524;10.964;2022-09-21T04:28:52;117.18;;;10.45;;
18334;SDS011;9293;49.524;10.964;2022-09-21T04:31:21;172.88;;;12.50;;
18334;SDS011;9293;49.524;10.964;2022-09-21T04:33:51;67.68;;;9.55;;
18334;SDS011;9293;49.524;10.964;2022-09-21T04:36:21;56.45;;;7.68;;
18334;SDS011;9293;49.524;10.964;2022-09-21T04:38:50;75.18;;;8.27;;
18334;SDS011;9293;49.524;10.964;2022-09-21T04:41:18;80.05;;;8.50;;
18334;SDS011;9293;49.524;10.964;2022-09-21T04:43:46;42.90;;;8.23;;
18334;SDS011;9293;49.524;10.964;2022-09-21T04:46:16;81.18;;;9.77;;
18334;SDS011;9293;49.524;10.964;2022-09-21T04:48:46;180.38;;;12.13;;
18334;SDS011;9293;49.524;10.964;2022-09-21T04:51:15;94.72;;;9.63;;
18334;SDS011;9293;49.524;10.964;2022-09-21T04:53:44;319.48;;;13.25;;
18334;SDS011;9293;49.524;10.964;2022-09-21T04:56:13;227.70;;;15.40;;
18334;SDS011;9293;49.524;10.964;2022-09-21T04:58:42;130.55;;;10.68;;
18334;SDS011;9293;49.524;10.964;2022-09-21T05:01:10;161.35;;;9.43;;
18334;SDS011;9293;49.524;10.964;2022-09-21T05:03:39;352.42;;;16.83;;
18334;SDS011;9293;49.524;10.964;2022-09-21T05:06:07;128.93;;;10.45;;
18334;SDS011;9293;49.524;10.964;2022-09-21T05:08:37;186.85;;;10.95;;
18334;SDS011;9293;49.524;10.964;2022-09-21T05:11:24;301.83;;;13.18;;
18334;SDS011;9293;49.524;10.964;2022-09-21T05:13:52;153.13;;;10.07;;
18334;SDS011;9293;49.524;10.964;2022-09-21T05:16:20;55.78;;;8.43;;
18334;SDS011;9293;49.524;10.964;2022-09-21T05:18:51;41.78;;;8.75;;
18334;SDS011;9293;49.524;10.964;2022-09-21T05:21:21;35.53;;;8.15;;
18334;SDS011;9293;49.524;10.964;2022-09-21T05:23:52;36.80;;;8.98;;
18334;SDS011;9293;49.524;10.964;2022-09-21T05:26:23;85.72;;;11.38;;
18334;SDS011;9293;49.524;10.964;2022-09-21T05:28:52;64.13;;;8.40;;
18334;SDS011;9293;49.524;10.964;2022-09-21T05:31:30;97.60;;;8.73;;
18334;SDS011;9293;49.524;10.964;2022-09-21T05:34:26;42.00;;;7.63;;
18334;SDS011;9293;49.524;10.964;2022-09-21T05:37:07;100.75;;;8.43;;
18334;SDS011;9293;49.524;10.964;2022-09-21T05:39:39;76.72;;;8.52;;
18334;SDS011;9293;49.524;10.964;2022-09-21T05:42:08;22.95;;;5.93;;
18334;SDS011;9293;49.524;10.964;2022-09-21T05:44:37;21.73;;;6.57;;
18334;SDS011;9293;49.524;10.964;2022-09-21T05:55:55;87.28;;;7.75;;
18334;SDS011;9293;49.524;10.964;2022-09-21T05:58:39;59.53;;;9.40;;
18334;SDS011;9293;49.524;10.964;2022-09-21T06:01:45;56.55;;;8.45;;
18334;SDS011;9293;49.524;10.964;2022-09-21T06:04:37;45.72;;;7.93;;
18334;SDS011;9293;49.524;10.964;2022-09-21T06:07:05;43.15;;;7.00;;
18334;SDS011;9293;49.524;10.964;2022-09-21T06:09:33;18.55;;;6.18;;
18334;SDS011;9293;49.524;10.964;2022-09-21T06:12:07;130.27;;;7.82;;
18334;SDS011;9293;49.524;10.964;2022-09-21T06:14:37;52.58;;;6.78;;
18334;SDS011;9293;49.524;10.964;2022-09-21T06:17:05;35.03;;;5.70;;
18334;SDS011;9293;49.524;10.964;2022-09-21T06:19:33;18.38;;;4.65;;
18334;SDS011;9293;49.524;10.964;2022-09-21T06:22:01;63.50;;;5.90;;
18334;SDS011;9293;49.524;10.964;2022-09-21T06:24:29;49.35;;;7.43;;
18334;SDS011;9293;49.524;10.964;2022-09-21T06:26:57;217.25;;;9.60;;
18334;SDS011;9293;49.524;10.964;2022-09-21T06:29:25;62.75;;;8.20;;
18334;SDS011;9293;49.524;10.964;2022-09-21T06:31:52;56.75;;;7.38;;
18334;SDS011;9293;49.524;10.964;2022-09-21T06:34:20;74.05;;;7.85;;
18334;SDS011;9293;49.524;10.964;2022-09-21T06:36:48;64.13;;;7.30;;
18334;SDS011;9293;49.524;10.964;2022-09-21T06:39:16;42.35;;;7.22;;
18334;SDS011;9293;49.524;10.964;2022-09-21T06:41:44;130.02;;;8.93;;
18334;SDS011;9293;49.524;10.964;2022-09-21T06:44:14;75.70;;;7.78;;
18334;SDS011;9293;49.524;10.964;2022-09-21T06:46:42;147.57;;;8.38;;
18334;SDS011;9293;49.524;10.964;2022-09-21T06:49:10;71.43;;;8.02;;
18334;SDS011;9293;49.524;10.964;2022-09-21T06:51:38;32.20;;;7.00;;
18334;SDS011;9293;49.524;10.964;2022-09-21T06:54:06;87.65;;;7.45;;
18334;SDS011;9293;49.524;10.964;2022-09-21T06:56:34;56.38;;;6.65;;
18334;SDS011;9293;49.524;10.964;2022-09-21T06:59:02;74.00;;;7.32;;
18334;SDS011;9293;49.524;10.964;2022-09-21T07:01:30;55.03;;;7.40;;
18334;SDS011;9293;49.524;10.964;2022-09-21T07:03:58;106.03;;;11.48;;
18334;SDS011;9293;49.524;10.964;2022-09-21T07:06:26;49.05;;;8.52;;
18334;SDS011;9293;49.524;10.964;2022-09-21T07:08:55;65.47;;;7.57;;
18334;SDS011;9293;49.524;10.964;2022-09-21T07:11:46;52.72;;;7.30;;
18334;SDS011;9293;49.524;10.964;2022-09-21T07:14:13;57.03;;;8.73;;
18334;SDS011;9293;49.524;10.964;2022-09-21T07:16:41;29.50;;;6.75;;
18334;SDS011;9293;49.524;10.964;2022-09-21T07:19:09;40.85;;;6.53;;
18334;SDS011;9293;49.524;10.964;2022-09-21T07:21:38;48.30;;;8.88;;
18334;SDS011;9293;49.524;10.964;2022-09-21T07:24:06;71.18;;;7.47;;
18334;SDS011;9293;49.524;10.964;2022-09-21T07:26:38;40.88;;;7.75;;
18334;SDS011;9293;49.524;10.964;2022-09-21T07:29:06;14.85;;;6.90;;
18334;SDS011;9293;49.524;10.964;2022-09-21T07:31:34;41.28;;;7.53;;
18334;SDS011;9293;49.524;10.964;2022-09-21T07:34:03;24.98;;;5.82;;
18334;SDS011;9293;49.524;10.964;2022-09-21T07:36:31;10.80;;;5.90;;
18334;SDS011;9293;49.524;10.964;2022-09-21T07:38:58;9.65;;;6.38;;
18334;SDS011;9293;49.524;10.964;2022-09-21T07:41:26;70.60;;;7.22;;
18334;SDS011;9293;49.524;10.964;2022-09-21T07:43:54;62.65;;;6.43;;
18334;SDS011;9293;49.524;10.964;2022-09-21T07:46:22;47.75;;;7.13;;
18334;SDS011;9293;49.524;10.964;2022-09-21T07:48:54;20.17;;;6.75;;
18334;SDS011;9293;49.524;10.964;2022-09-21T07:51:23;19.23;;;7.18;;
18334;SDS011;9293;49.524;10.964;2022-09-21T07:53:54;47.70;;;7.35;;
18334;SDS011;9293;49.524;10.964;2022-09-21T07:56:23;17.05;;;6.38;;
18334;SDS011;9293;49.524;10.964;2022-09-21T07:58:51;34.47;;;6.68;;
18334;SDS011;9293;49.524;10.964;2022-09-21T08:01:35;43.40;;;7.22;;
18334;SDS011;9293;49.524;10.964;2022-09-21T08:04:06;55.33;;;7.30;;
18334;SDS011;9293;49.524;10.964;2022-09-21T08:06:36;15.45;;;6.35;;
18334;SDS011;9293;49.524;10.964;2022-09-21T08:09:06;16.38;;;6.07;;
18334;SDS011;9293;49.524;10.964;2022-09-21T08:11:34;15.48;;;6.75;;
18334;SDS011;9293;49.524;10.964;2022-09-21T08:14:05;13.32;;;7.75;;
18334;SDS011;9293;49.524;10.964;2022-09-21T08:16:37;20.27;;;6.78;;
18334;SDS011;9293;49.524;10.964;2022-09-21T08:19:09;34.40;;;8.13;;
18334;SDS011;9293;49.524;10.964;2022-09-21T08:21:37;13.80;;;7.05;;
18334;SDS011;9293;49.524;10.964;2022-09-21T08:24:05;9.27;;;6.70;;
18334;SDS011;9293;49.524;10.964;2022-09-21T08:26:33;10.48;;;6.57;;
18334;SDS011;9293;49.524;10.964;2022-09-21T08:29:01;10.25;;;7.28;;
18334;SDS011;9293;49.524;10.964;2022-09-21T08:31:30;11.05;;;7.63;;
18334;SDS011;9293;49.524;10.964;2022-09-21T08:33:58;12.25;;;7.70;;
18334;SDS011;9293;49.524;10.964;2022-09-21T08:36:26;10.25;;;7.88;;
18334;SDS011;9293;49.524;10.964;2022-09-21T08:38:55;9.68;;;7.50;;
18334;SDS011;9293;49.524;10.964;2022-09-21T08:44:20;10.45;;;7.82;;
18334;SDS011;9293;49.524;10.964;2022-09-21T08:47:00;9.30;;;7.38;;
18334;SDS011;9293;49.524;10.964;2022-09-21T08:49:51;8.98;;;7.13;;
18334;SDS011;9293;49.524;10.964;2022-09-21T08:52:23;9.48;;;7.20;;
18334;SDS011;9293;49.524;10.964;2022-09-21T08:57:29;8.63;;;6.72;;
18334;SDS011;9293;49.524;10.964;2022-09-21T09:00:06;10.63;;;7.95;;
18334;SDS011;9293;49.524;10.964;2022-09-21T09:18:50;10.75;;;7.72;;
18334;SDS011;9293;49.524;10.964;2022-09-21T09:21:42;9.40;;;8.13;;
18334;SDS011;9293;49.524;10.964;2022-09-21T09:26:49;10.77;;;8.18;;
18334;SDS011;9293;49.524;10.964;2022-09-21T09:32:04;9.07;;;7.88;;
18334;SDS011;9293;49.524;10.964;2022-09-21T09:34:51;8.00;;;7.20;;
18334;SDS011;9293;49.524;10.964;2022-09-21T09:37:34;7.45;;;6.50;;
18334;SDS011;9293;49.524;10.964;2022-09-21T09:40:10;7.10;;;6.40;;
18334;SDS011;9293;49.524;10.964;2022-09-21T09:45:45;5.53;;;4.78;;
18334;SDS011;9293;49.524;10.964;2022-09-21T09:48:50;6.35;;;5.13;;
18334;SDS011;9293;49.524;10.964;2022-09-21T09:51:28;6.07;;;5.47;;
18334;SDS011;9293;49.524;10.964;2022-09-21T09:53:57;6.20;;;5.60;;
18334;SDS011;9293;49.524;10.964;2022-09-21T09:56:27;5.95;;;5.35;;
18334;SDS011;9293;49.524;10.964;2022-09-21T09:58:59;5.63;;;5.13;;
18334;SDS011;9293;49.524;10.964;2022-09-21T10:01:41;7.43;;;5.75;;
18334;SDS011;9293;49.524;10.964;2022-09-21T10:04:13;5.63;;;5.03;;
18334;SDS011;9293;49.524;10.964;2022-09-21T10:06:43;7.75;;;5.20;;
18334;SDS011;9293;49.524;10.964;2022-09-21T10:09:19;6.28;;;5.25;;
18334;SDS011;9293;49.524;10.964;2022-09-21T10:12:18;6.38;;;5.78;;
18334;SDS011;9293;49.524;10.964;2022-09-21T10:14:52;6.35;;;5.60;;
18334;SDS011;9293;49.524;10.964;2022-09-21T10:17:23;6.93;;;5.60;;
18334;SDS011;9293;49.524;10.964;2022-09-21T10:20:01;5.90;;;5.40;;
18334;SDS011;9293;49.524;10.964;2022-09-21T10:22:32;6.63;;;6.03;;
18334;SDS011;9293;49.524;10.964;2022-09-21T10:25:00;6.35;;;5.65;;
18334;SDS011;9293;49.524;10.964;2022-09-21T10:27:33;6.95;;;6.28;;
18334;SDS011;9293;49.524;10.964;2022-09-21T10:30:02;7.25;;;6.55;;
18334;SDS011;9293;49.524;10.964;2022-09-21T10:32:30;10.45;;;8.07;;
18334;SDS011;9293;49.524;10.964;2022-09-21T10:35:13;8.98;;;6.57;;
18334;SDS011;9293;49.524;10.964;2022-09-21T10:38:15;7.38;;;6.60;;
18334;SDS011;9293;49.524;10.964;2022-09-21T10:40:49;13.55;;;6.68;;
18334;SDS011;9293;49.524;10.964;2022-09-21T10:43:21;6.18;;;5.63;;
18334;SDS011;9293;49.524;10.964;2022-09-21T10:46:09;5.82;;;5.07;;
18334;SDS011;9293;49.524;10.964;2022-09-21T10:48:38;7.18;;;5.50;;
18334;SDS011;9293;49.524;10.964;2022-09-21T10:51:19;5.65;;;4.82;;
18334;SDS011;9293;49.524;10.964;2022-09-21T10:53:57;5.57;;;4.38;;
18334;SDS011;9293;49.524;10.964;2022-09-21T10:56:25;6.50;;;4.28;;
18334;SDS011;9293;49.524;10.964;2022-09-21T11:01:59;5.97;;;4.03;;
18334;SDS011;9293;49.524;10.964;2022-09-21T11:04:52;3.90;;;3.33;;
18334;SDS011;9293;49.524;10.964;2022-09-21T11:07:38;4.32;;;2.95;;
18334;SDS011;9293;49.524;10.964;2022-09-21T11:12:57;4.82;;;2.97;;
18334;SDS011;9293;49.524;10.964;2022-09-21T11:15:55;4.05;;;3.00;;
18334;SDS011;9293;49.524;10.964;2022-09-21T11:23:48;3.35;;;2.80;;
18334;SDS011;9293;49.524;10.964;2022-09-21T11:26:28;3.83;;;2.50;;
18334;SDS011;9293;49.524;10.964;2022-09-21T11:29:14;3.30;;;2.50;;
18334;SDS011;9293;49.524;10.964;2022-09-21T11:37:48;1.80;;;1.20;;
18334;SDS011;9293;49.524;10.964;2022-09-21T11:40:40;4.15;;;1.70;;
18334;SDS011;9293;49.524;10.964;2022-09-21T11:54:23;1.80;;;1.08;;
18334;SDS011;9293;49.524;10.964;2022-09-21T11:56:58;2.33;;;1.70;;
18334;SDS011;9293;49.524;10.964;2022-09-21T12:06:20;2.97;;;1.77;;
18334;SDS011;9293;49.524;10.964;2022-09-21T12:20:22;2.40;;;2.00;;
18334;SDS011;9293;49.524;10.964;2022-09-21T12:23:10;5.20;;;2.00;;
18334;SDS011;9293;49.524;10.964;2022-09-21T12:25:48;3.67;;;1.73;;
18334;SDS011;9293;49.524;10.964;2022-09-21T12:28:37;2.65;;;1.40;;
18334;SDS011;9293;49.524;10.964;2022-09-21T12:31:20;2.97;;;1.75;;
18334;SDS011;9293;49.524;10.964;2022-09-21T12:33:57;1.70;;;1.38;;
18334;SDS011;9293;49.524;10.964;2022-09-21T12:45:55;2.15;;;1.60;;
18334;SDS011;9293;49.524;10.964;2022-09-21T12:51:18;2.95;;;1.75;;
18334;SDS011;9293;49.524;10.964;2022-09-21T12:53:45;4.15;;;2.03;;
18334;SDS011;9293;49.524;10.964;2022-09-21T12:59:12;5.35;;;2.20;;
18334;SDS011;9293;49.524;10.964;2022-09-21T13:04:36;3.20;;;1.58;;
18334;SDS011;9293;49.524;10.964;2022-09-21T13:10:13;2.05;;;1.20;;
18334;SDS011;9293;49.524;10.964;2022-09-21T13:13:13;3.30;;;1.10;;
18334;SDS011;9293;49.524;10.964;2022-09-21T13:15:54;3.33;;;1.50;;
18334;SDS011;9293;49.524;10.964;2022-09-21T13:18:30;3.55;;;1.40;;
18334;SDS011;9293;49.524;10.964;2022-09-21T13:21:23;1.70;;;1.02;;
18334;SDS011;9293;49.524;10.964;2022-09-21T13:23:58;3.13;;;1.08;;
18334;SDS011;9293;49.524;10.964;2022-09-21T13:26:42;3.38;;;1.10;;
18334;SDS011;9293;49.524;10.964;2022-09-21T13:31:54;2.22;;;0.80;;
18334;SDS011;9293;49.524;10.964;2022-09-21T13:34:32;2.40;;;0.90;;
18334;SDS011;9293;49.524;10.964;2022-09-21T13:47:54;1.85;;;0.82;;
18334;SDS011;9293;49.524;10.964;2022-09-21T13:50:28;1.70;;;0.80;;
18334;SDS011;9293;49.524;10.964;2022-09-21T13:53:07;2.40;;;0.90;;
18334;SDS011;9293;49.524;10.964;2022-09-21T13:55:49;2.45;;;0.60;;
18334;SDS011;9293;49.524;10.964;2022-09-21T13:58:30;0.65;;;0.43;;
18334;SDS011;9293;49.524;10.964;2022-09-21T14:01:04;1.52;;;0.70;;
18334;SDS011;9293;49.524;10.964;2022-09-21T14:04:02;2.08;;;0.70;;
18334;SDS011;9293;49.524;10.964;2022-09-21T14:06:46;1.95;;;0.80;;
18334;SDS011;9293;49.524;10.964;2022-09-21T14:09:19;1.23;;;0.80;;
18334;SDS011;9293;49.524;10.964;2022-09-21T14:12:00;2.70;;;0.70;;
18334;SDS011;9293;49.524;10.964;2022-09-21T14:14:31;1.00;;;0.65;;
18334;SDS011;9293;49.524;10.964;2022-09-21T14:17:04;1.45;;;0.60;;
18334;SDS011;9293;49.524;10.964;2022-09-21T14:27:57;3.50;;;3.08;;
18334;SDS011;9293;49.524;10.964;2022-09-21T14:30:32;2.65;;;2.20;;
18334;SDS011;9293;49.524;10.964;2022-09-21T14:33:19;2.30;;;1.30;;
18334;SDS011;9293;49.524;10.964;2022-09-21T14:35:53;0.82;;;0.52;;
18334;SDS011;9293;49.524;10.964;2022-09-21T14:38:24;1.08;;;0.57;;
18334;SDS011;9293;49.524;10.964;2022-09-21T14:41:06;2.25;;;1.20;;
18334;SDS011;9293;49.524;10.964;2022-09-21T14:43:41;2.58;;;1.30;;
18334;SDS011;9293;49.524;10.964;2022-09-21T14:49:31;4.47;;;1.50;;
18334;SDS011;9293;49.524;10.964;2022-09-21T15:06:10;4.88;;;1.10;;
18334;SDS011;9293;49.524;10.964;2022-09-21T15:09:26;3.55;;;1.25;;
18334;SDS011;9293;49.524;10.964;2022-09-21T15:12:38;1.80;;;1.10;;
18334;SDS011;9293;49.524;10.964;2022-09-21T15:15:34;2.67;;;1.43;;
18334;SDS011;9293;49.524;10.964;2022-09-21T15:18:18;1.95;;;1.20;;
18334;SDS011;9293;49.524;10.964;2022-09-21T15:23:30;2.80;;;1.38;;
18334;SDS011;9293;49.524;10.964;2022-09-21T15:26:01;3.70;;;2.50;;
18334;SDS011;9293;49.524;10.964;2022-09-21T15:28:37;5.60;;;3.78;;
18334;SDS011;9293;49.524;10.964;2022-09-21T15:31:33;3.00;;;1.77;;
18334;SDS011;9293;49.524;10.964;2022-09-21T15:34:06;2.22;;;1.50;;
18334;SDS011;9293;49.524;10.964;2022-09-21T15:36:36;1.65;;;0.90;;
18334;SDS011;9293;49.524;10.964;2022-09-21T15:39:06;2.05;;;1.40;;
18334;SDS011;9293;49.524;10.964;2022-09-21T15:42:00;2.60;;;1.27;;
18334;SDS011;9293;49.524;10.964;2022-09-21T15:44:46;6.72;;;3.45;;
18334;SDS011;9293;49.524;10.964;2022-09-21T15:47:16;4.82;;;2.65;;
18334;SDS011;9293;49.524;10.964;2022-09-21T15:49:49;2.75;;;1.70;;
18334;SDS011;9293;49.524;10.964;2022-09-21T15:52:27;2.25;;;1.00;;
18334;SDS011;9293;49.524;10.964;2022-09-21T15:54:58;2.67;;;1.20;;
18334;SDS011;9293;49.524;10.964;2022-09-21T16:00:06;1.65;;;0.70;;
18334;SDS011;9293;49.524;10.964;2022-09-21T16:05:49;2.25;;;1.08;;
18334;SDS011;9293;49.524;10.964;2022-09-21T16:08:34;3.25;;;2.00;;
18334;SDS011;9293;49.524;10.964;2022-09-21T16:11:15;1.95;;;1.00;;
18334;SDS011;9293;49.524;10.964;2022-09-21T16:13:57;2.45;;;1.35;;
18334;SDS011;9293;49.524;10.964;2022-09-21T16:17:06;6.55;;;3.10;;
18334;SDS011;9293;49.524;10.964;2022-09-21T16:22:29;3.25;;;1.25;;
18334;SDS011;9293;49.524;10.964;2022-09-21T16:25:40;2.72;;;1.58;;
18334;SDS011;9293;49.524;10.964;2022-09-21T16:38:56;4.55;;;2.75;;
18334;SDS011;9293;49.524;10.964;2022-09-21T16:41:30;6.03;;;2.85;;
18334;SDS011;9293;49.524;10.964;2022-09-21T16:44:01;5.07;;;2.30;;
18334;SDS011;9293;49.524;10.964;2022-09-21T16:46:30;3.75;;;1.58;;
18334;SDS011;9293;49.524;10.964;2022-09-21T16:48:58;4.63;;;3.20;;
18334;SDS011;9293;49.524;10.964;2022-09-21T16:51:27;9.93;;;7.03;;
18334;SDS011;9293;49.524;10.964;2022-09-21T16:53:55;13.57;;;9.82;;
18334;SDS011;9293;49.524;10.964;2022-09-21T16:56:23;7.35;;;5.65;;
18334;SDS011;9293;49.524;10.964;2022-09-21T16:58:51;5.70;;;4.30;;
18334;SDS011;9293;49.524;10.964;2022-09-21T17:01:19;4.88;;;3.08;;
18334;SDS011;9293;49.524;10.964;2022-09-21T17:03:48;5.47;;;2.60;;
18334;SDS011;9293;49.524;10.964;2022-09-21T17:06:17;5.20;;;2.25;;
18334;SDS011;9293;49.524;10.964;2022-09-21T17:08:48;3.90;;;2.30;;
18334;SDS011;9293;49.524;10.964;2022-09-21T17:11:17;3.78;;;2.30;;
18334;SDS011;9293;49.524;10.964;2022-09-21T17:13:49;3.70;;;2.30;;
18334;SDS011;9293;49.524;10.964;2022-09-21T17:16:18;3.42;;;2.00;;
18334;SDS011;9293;49.524;10.964;2022-09-21T17:18:47;2.75;;;1.95;;
18334;SDS011;9293;49.524;10.964;2022-09-21T17:21:15;3.13;;;1.83;;
18334;SDS011;9293;49.524;10.964;2022-09-21T17:23:44;6.70;;;2.92;;
18334;SDS011;9293;49.524;10.964;2022-09-21T17:26:13;10.35;;;5.93;;
18334;SDS011;9293;49.524;10.964;2022-09-21T17:28:51;3.15;;;2.10;;
18334;SDS011;9293;49.524;10.964;2022-09-21T17:31:21;5.18;;;1.95;;
18334;SDS011;9293;49.524;10.964;2022-09-21T17:33:51;2.60;;;1.77;;
18334;SDS011;9293;49.524;10.964;2022-09-21T17:36:23;3.90;;;2.05;;
18334;SDS011;9293;49.524;10.964;2022-09-21T17:38:51;4.35;;;2.67;;
18334;SDS011;9293;49.524;10.964;2022-09-21T17:41:31;4.55;;;1.70;;
18334;SDS011;9293;49.524;10.964;2022-09-21T17:44:10;3.17;;;1.52;;
18334;SDS011;9293;49.524;10.964;2022-09-21T17:46:51;2.63;;;1.40;;
18334;SDS011;9293;49.524;10.964;2022-09-21T17:49:24;4.63;;;1.63;;
18334;SDS011;9293;49.524;10.964;2022-09-21T17:51:53;3.72;;;1.95;;
18334;SDS011;9293;49.524;10.964;2022-09-21T17:54:39;9.10;;;2.42;;
18334;SDS011;9293;49.524;10.964;2022-09-21T17:59:36;4.57;;;3.08;;
18334;SDS011;9293;49.524;10.964;2022-09-21T18:02:13;6.28;;;3.92;;
18334;SDS011;9293;49.524;10.964;2022-09-21T18:04:50;6.18;;;4.63;;
18334;SDS011;9293;49.524;10.964;2022-09-21T18:07:25;4.82;;;3.38;;
18334;SDS011;9293;49.524;10.964;2022-09-21T18:09:53;7.03;;;3.88;;
18334;SDS011;9293;49.524;10.964;2022-09-21T18:18:38;10.07;;;5.38;;
18334;SDS011;9293;49.524;10.964;2022-09-21T18:21:04;6.05;;;4.80;;
18334;SDS011;9293;49.524;10.964;2022-09-21T18:23:46;11.43;;;5.20;;
18334;SDS011;9293;49.524;10.964;2022-09-21T18:26:34;8.27;;;5.47;;
18334;SDS011;9293;49.524;10.964;2022-09-21T18:29:02;6.75;;;5.00;;
18334;SDS011;9293;49.524;10.964;2022-09-21T18:31:56;7.68;;;5.10;;
18334;SDS011;9293;49.524;10.964;2022-09-21T18:34:53;13.13;;;7.93;;
18334;SDS011;9293;49.524;10.964;2022-09-21T18:40:33;10.45;;;5.60;;
18334;SDS011;9293;49.524;10.964;2022-09-21T18:53:51;11.35;;;6.95;;
18334;SDS011;9293;49.524;10.964;2022-09-21T18:56:23;13.90;;;8.85;;
18334;SDS011;9293;49.524;10.964;2022-09-21T18:58:53;13.98;;;9.50;;
18334;SDS011;9293;49.524;10.964;2022-09-21T19:01:22;14.80;;;9.27;;
18334;SDS011;9293;49.524;10.964;2022-09-21T19:03:51;13.52;;;9.18;;
18334;SDS011;9293;49.524;10.964;2022-09-21T19:06:39;13.38;;;6.95;;
18334;SDS011;9293;49.524;10.964;2022-09-21T19:23:50;6.75;;;4.10;;